sensor_id;sensor_type;location;lat;lon;timestamp;pressure;altitude;pressure_sealevel;temperature;humidity
22389;BME280;11362;48.102;11.620;2022-08-19T00:01:52;94838.63;;;26.07;49.06
22389;BME280;11362;48.102;11.620;2022-08-19T00:04:21;94860.16;;;26.07;49.61
22389;BME280;11362;48.102;11.620;2022-08-19T00:06:46;94848.22;;;26.06;49.65
22389;BME280;11362;48.102;11.620;2022-08-19T00:09:14;94831.50;;;26.06;49.33
22389;BME280;11362;48.102;11.620;2022-08-19T00:11:40;94821.19;;;26.07;49.59
22389;BME280;11362;48.102;11.620;2022-08-19T00:14:07;94822.72;;;26.08;49.77
22389;BME280;11362;48.102;11.620;2022-08-19T00:16:33;94819.16;;;26.07;49.35
22389;BME280;11362;48.102;11.620;2022-08-19T00:18:58;94819.16;;;26.07;49.78
22389;BME280;11362;48.102;11.620;2022-08-19T00:21:25;94812.03;;;26.06;49.39
22389;BME280;11362;48.102;11.620;2022-08-19T00:23:51;94802.13;;;26.05;49.37
22389;BME280;11362;48.102;11.620;2022-08-19T00:26:16;94789.44;;;26.04;48.80
22389;BME280;11362;48.102;11.620;2022-08-19T00:28:42;94786.31;;;26.02;48.27
22389;BME280;11362;48.102;11.620;2022-08-19T00:31:09;94784.31;;;26.03;48.36
22389;BME280;11362;48.102;11.620;2022-08-19T00:33:35;94785.53;;;26.02;48.18
22389;BME280;11362;48.102;11.620;2022-08-19T00:36:01;94783.97;;;26.01;48.11
22389;BME280;11362;48.102;11.620;2022-08-19T00:38:27;94792.00;;;25.99;47.78
22389;BME280;11362;48.102;11.620;2022-08-19T00:40:53;94789.53;;;26.01;47.80
22389;BME280;11362;48.102;11.620;2022-08-19T00:43:21;94785.22;;;26.00;47.41
22389;BME280;11362;48.102;11.620;2022-08-19T00:45:48;94780.41;;;26.00;47.74
22389;BME280;11362;48.102;11.620;2022-08-19T00:48:14;94772.53;;;25.99;47.73
22389;BME280;11362;48.102;11.620;2022-08-19T00:50:40;94776.06;;;25.99;47.94
22389;BME280;11362;48.102;11.620;2022-08-19T00:53:06;94766.16;;;25.98;47.87
22389;BME280;11362;48.102;11.620;2022-08-19T00:55:32;94747.59;;;25.95;47.76
22389;BME280;11362;48.102;11.620;2022-08-19T00:58:02;94750.38;;;25.95;47.68
22389;BME280;11362;48.102;11.620;2022-08-19T01:00:29;94755.13;;;25.95;47.59
22389;BME280;11362;48.102;11.620;2022-08-19T01:02:55;94767.50;;;25.94;47.49
22389;BME280;11362;48.102;11.620;2022-08-19T01:05:23;94763.94;;;25.93;47.72
22389;BME280;11362;48.102;11.620;2022-08-19T01:07:49;94759.59;;;25.92;47.71
22389;BME280;11362;48.102;11.620;2022-08-19T01:10:17;94748.94;;;25.91;47.78
22389;BME280;11362;48.102;11.620;2022-08-19T01:12:45;94742.56;;;25.90;47.70
22389;BME280;11362;48.102;11.620;2022-08-19T01:15:13;94743.34;;;25.91;47.56
22389;BME280;11362;48.102;11.620;2022-08-19T01:17:39;94738.22;;;25.89;47.71
22389;BME280;11362;48.102;11.620;2022-08-19T01:20:06;94735.44;;;25.89;47.84
22389;BME280;11362;48.102;11.620;2022-08-19T01:22:39;94750.16;;;25.90;47.91
22389;BME280;11362;48.102;11.620;2022-08-19T01:25:07;94760.50;;;25.89;48.30
22389;BME280;11362;48.102;11.620;2022-08-19T01:27:38;94770.81;;;25.89;47.94
22389;BME280;11362;48.102;11.620;2022-08-19T01:30:04;94781.19;;;25.88;47.96
22389;BME280;11362;48.102;11.620;2022-08-19T01:32:30;94785.94;;;25.88;47.99
22389;BME280;11362;48.102;11.620;2022-08-19T01:34:55;94800.69;;;25.88;47.55
22389;BME280;11362;48.102;11.620;2022-08-19T01:37:20;94801.06;;;25.87;48.04
22389;BME280;11362;48.102;11.620;2022-08-19T01:39:46;94798.28;;;25.87;47.76
22389;BME280;11362;48.102;11.620;2022-08-19T01:42:11;94801.06;;;25.87;47.73
22389;BME280;11362;48.102;11.620;2022-08-19T01:44:38;94798.72;;;25.85;47.39
22389;BME280;11362;48.102;11.620;2022-08-19T01:47:03;94799.53;;;25.86;48.12
22389;BME280;11362;48.102;11.620;2022-08-19T01:49:29;94798.72;;;25.85;47.89
22389;BME280;11362;48.102;11.620;2022-08-19T01:51:54;94812.63;;;25.85;47.80
22389;BME280;11362;48.102;11.620;2022-08-19T01:54:22;94826.56;;;25.85;47.46
22389;BME280;11362;48.102;11.620;2022-08-19T01:56:49;94830.13;;;25.86;47.48
22389;BME280;11362;48.102;11.620;2022-08-19T01:59:17;94814.66;;;25.85;47.84
22389;BME280;11362;48.102;11.620;2022-08-19T02:01:43;94797.19;;;25.84;47.66
22389;BME280;11362;48.102;11.620;2022-08-19T02:04:09;94799.97;;;25.84;47.78
22389;BME280;11362;48.102;11.620;2022-08-19T02:06:34;94809.09;;;25.85;47.55
22389;BME280;11362;48.102;11.620;2022-08-19T02:09:00;94807.53;;;25.84;47.62
22389;BME280;11362;48.102;11.620;2022-08-19T02:11:28;94816.31;;;25.82;47.55
22389;BME280;11362;48.102;11.620;2022-08-19T02:13:55;94821.88;;;25.82;47.73
22389;BME280;11362;48.102;11.620;2022-08-19T02:16:21;94828.25;;;25.83;47.55
22389;BME280;11362;48.102;11.620;2022-08-19T02:18:47;94827.44;;;25.82;47.37
22389;BME280;11362;48.102;11.620;2022-08-19T02:21:12;94828.25;;;25.83;47.68
22389;BME280;11362;48.102;11.620;2022-08-19T02:23:38;94819.53;;;25.81;47.80
22389;BME280;11362;48.102;11.620;2022-08-19T02:26:03;94823.13;;;25.81;47.25
22389;BME280;11362;48.102;11.620;2022-08-19T02:28:28;94825.91;;;25.81;47.22
22389;BME280;11362;48.102;11.620;2022-08-19T02:30:54;94829.91;;;25.80;47.44
22389;BME280;11362;48.102;11.620;2022-08-19T02:33:19;94831.47;;;25.81;47.44
22389;BME280;11362;48.102;11.620;2022-08-19T02:35:45;94819.53;;;25.81;47.40
22389;BME280;11362;48.102;11.620;2022-08-19T02:38:12;94815.19;;;25.80;47.41
22389;BME280;11362;48.102;11.620;2022-08-19T02:40:37;94791.38;;;25.79;47.55
22389;BME280;11362;48.102;11.620;2022-08-19T02:43:05;94778.25;;;25.79;47.22
22389;BME280;11362;48.102;11.620;2022-08-19T02:45:35;94762.78;;;25.78;47.46
22389;BME280;11362;48.102;11.620;2022-08-19T02:48:01;94758.78;;;25.79;47.84
22389;BME280;11362;48.102;11.620;2022-08-19T02:50:26;94765.56;;;25.78;47.44
22389;BME280;11362;48.102;11.620;2022-08-19T02:52:52;94762.00;;;25.78;47.64
22389;BME280;11362;48.102;11.620;2022-08-19T02:55:17;94751.63;;;25.78;47.31
22389;BME280;11362;48.102;11.620;2022-08-19T02:57:42;94748.09;;;25.78;47.97
22389;BME280;11362;48.102;11.620;2022-08-19T03:00:08;94758.00;;;25.79;47.48
22389;BME280;11362;48.102;11.620;2022-08-19T03:02:34;94763.56;;;25.79;47.43
22389;BME280;11362;48.102;11.620;2022-08-19T03:04:59;94767.13;;;25.79;47.88
22389;BME280;11362;48.102;11.620;2022-08-19T03:07:24;94769.91;;;25.79;47.59
22389;BME280;11362;48.102;11.620;2022-08-19T03:09:50;94775.13;;;25.77;47.35
22389;BME280;11362;48.102;11.620;2022-08-19T03:12:15;94773.13;;;25.78;47.56
22389;BME280;11362;48.102;11.620;2022-08-19T03:14:40;94770.34;;;25.78;47.48
22389;BME280;11362;48.102;11.620;2022-08-19T03:17:06;94771.13;;;25.78;47.29
22389;BME280;11362;48.102;11.620;2022-08-19T03:19:31;94772.34;;;25.77;47.54
22389;BME280;11362;48.102;11.620;2022-08-19T03:21:57;94782.25;;;25.78;47.48
22389;BME280;11362;48.102;11.620;2022-08-19T03:24:23;94789.81;;;25.78;47.69
22389;BME280;11362;48.102;11.620;2022-08-19T03:26:54;94798.19;;;25.78;47.65
22389;BME280;11362;48.102;11.620;2022-08-19T03:29:20;94787.81;;;25.78;47.69
22389;BME280;11362;48.102;11.620;2022-08-19T03:31:45;94789.03;;;25.77;47.32
22389;BME280;11362;48.102;11.620;2022-08-19T03:34:30;94781.47;;;25.78;47.46
22389;BME280;11362;48.102;11.620;2022-08-19T03:36:59;94787.47;;;25.76;47.19
22389;BME280;11362;48.102;11.620;2022-08-19T03:39:25;94781.91;;;25.76;47.48
22389;BME280;11362;48.102;11.620;2022-08-19T03:41:52;94781.91;;;25.76;47.45
22389;BME280;11362;48.102;11.620;2022-08-19T03:44:20;94785.13;;;25.75;47.45
22389;BME280;11362;48.102;11.620;2022-08-19T03:46:49;94786.72;;;25.76;47.75
22389;BME280;11362;48.102;11.620;2022-08-19T03:49:16;94789.94;;;25.74;47.34
22389;BME280;11362;48.102;11.620;2022-08-19T03:51:42;94790.69;;;25.75;47.52
22389;BME280;11362;48.102;11.620;2022-08-19T03:54:10;94783.16;;;25.75;47.77
22389;BME280;11362;48.102;11.620;2022-08-19T03:56:37;94782.34;;;25.75;47.18
22389;BME280;11362;48.102;11.620;2022-08-19T03:59:04;94785.94;;;25.75;47.60
22389;BME280;11362;48.102;11.620;2022-08-19T04:01:30;94793.47;;;25.75;47.46
22389;BME280;11362;48.102;11.620;2022-08-19T04:03:56;94787.91;;;25.75;47.50
22389;BME280;11362;48.102;11.620;2022-08-19T04:06:25;94781.59;;;25.74;47.10
22389;BME280;11362;48.102;11.620;2022-08-19T04:08:52;94783.16;;;25.75;47.35
22389;BME280;11362;48.102;11.620;2022-08-19T04:11:22;94776.03;;;25.74;47.21
22389;BME280;11362;48.102;11.620;2022-08-19T04:13:48;94781.59;;;25.74;47.36
22389;BME280;11362;48.102;11.620;2022-08-19T04:16:14;94776.03;;;25.74;47.30
22389;BME280;11362;48.102;11.620;2022-08-19T04:18:40;94787.16;;;25.74;47.19
22389;BME280;11362;48.102;11.620;2022-08-19T04:21:07;94787.16;;;25.74;47.08
22389;BME280;11362;48.102;11.620;2022-08-19T04:23:33;94778.00;;;25.74;47.33
22389;BME280;11362;48.102;11.620;2022-08-19T04:25:59;94784.38;;;25.74;47.61
22389;BME280;11362;48.102;11.620;2022-08-19T04:28:24;94795.50;;;25.74;47.53
22389;BME280;11362;48.102;11.620;2022-08-19T04:30:52;94793.47;;;25.75;47.22
22389;BME280;11362;48.102;11.620;2022-08-19T04:33:19;94805.06;;;25.73;47.50
22389;BME280;11362;48.102;11.620;2022-08-19T04:35:47;94810.16;;;25.75;47.62
22389;BME280;11362;48.102;11.620;2022-08-19T04:38:14;94807.84;;;25.73;47.31
22389;BME280;11362;48.102;11.620;2022-08-19T04:40:41;94811.41;;;25.74;47.33
22389;BME280;11362;48.102;11.620;2022-08-19T04:43:06;94813.41;;;25.73;47.20
22389;BME280;11362;48.102;11.620;2022-08-19T04:45:31;94831.66;;;25.74;47.01
22389;BME280;11362;48.102;11.620;2022-08-19T04:47:56;94837.22;;;25.74;47.27
22389;BME280;11362;48.102;11.620;2022-08-19T04:50:22;94839.22;;;25.74;47.50
22389;BME280;11362;48.102;11.620;2022-08-19T04:52:50;94841.25;;;25.73;47.36
22389;BME280;11362;48.102;11.620;2022-08-19T04:55:15;94842.00;;;25.74;47.28
22389;BME280;11362;48.102;11.620;2022-08-19T04:57:41;94841.25;;;25.73;47.42
22389;BME280;11362;48.102;11.620;2022-08-19T05:00:10;94839.69;;;25.72;47.22
22389;BME280;11362;48.102;11.620;2022-08-19T05:02:36;94842.00;;;25.74;47.38
22389;BME280;11362;48.102;11.620;2022-08-19T05:05:02;94845.25;;;25.72;47.51
22389;BME280;11362;48.102;11.620;2022-08-19T05:07:28;94851.56;;;25.73;47.36
22389;BME280;11362;48.102;11.620;2022-08-19T05:09:53;94850.81;;;25.72;47.21
22389;BME280;11362;48.102;11.620;2022-08-19T05:12:19;94857.94;;;25.73;47.21
22389;BME280;11362;48.102;11.620;2022-08-19T05:14:45;94862.69;;;25.73;47.06
22389;BME280;11362;48.102;11.620;2022-08-19T05:17:11;94851.56;;;25.73;46.92
22389;BME280;11362;48.102;11.620;2022-08-19T05:19:36;94835.31;;;25.71;47.08
22389;BME280;11362;48.102;11.620;2022-08-19T05:22:01;94851.56;;;25.73;47.71
22389;BME280;11362;48.102;11.620;2022-08-19T05:24:28;94853.59;;;25.72;47.03
22389;BME280;11362;48.102;11.620;2022-08-19T05:26:55;94843.22;;;25.73;47.42
22389;BME280;11362;48.102;11.620;2022-08-19T05:29:21;94836.91;;;25.72;47.23
22389;BME280;11362;48.102;11.620;2022-08-19T05:31:47;94834.13;;;25.72;46.89
22389;BME280;11362;48.102;11.620;2022-08-19T05:34:13;94833.31;;;25.72;47.19
22389;BME280;11362;48.102;11.620;2022-08-19T05:36:41;94834.13;;;25.72;47.16
22389;BME280;11362;48.102;11.620;2022-08-19T05:39:07;94827.75;;;25.72;47.38
22389;BME280;11362;48.102;11.620;2022-08-19T05:41:33;94830.09;;;25.73;47.05
22389;BME280;11362;48.102;11.620;2022-08-19T05:44:04;94822.19;;;25.72;47.15
22389;BME280;11362;48.102;11.620;2022-08-19T05:46:29;94820.22;;;25.72;47.21
22389;BME280;11362;48.102;11.620;2022-08-19T05:48:55;94831.34;;;25.72;47.29
22389;BME280;11362;48.102;11.620;2022-08-19T05:51:20;94823.00;;;25.72;47.29
22389;BME280;11362;48.102;11.620;2022-08-19T05:53:45;94827.75;;;25.72;47.49
22389;BME280;11362;48.102;11.620;2022-08-19T05:56:14;94820.22;;;25.72;47.11
22389;BME280;11362;48.102;11.620;2022-08-19T05:58:40;94831.34;;;25.72;47.08
22389;BME280;11362;48.102;11.620;2022-08-19T06:01:13;94832.53;;;25.71;47.18
22389;BME280;11362;48.102;11.620;2022-08-19T06:03:40;94832.53;;;25.71;47.27
22389;BME280;11362;48.102;11.620;2022-08-19T06:06:13;94818.63;;;25.71;47.25
22389;BME280;11362;48.102;11.620;2022-08-19T06:08:39;94820.63;;;25.71;47.33
22389;BME280;11362;48.102;11.620;2022-08-19T06:14:03;94832.53;;;25.71;47.33
22389;BME280;11362;48.102;11.620;2022-08-19T06:16:29;94840.88;;;25.71;47.40
22389;BME280;11362;48.102;11.620;2022-08-19T06:18:56;94843.66;;;25.71;46.80
22389;BME280;11362;48.102;11.620;2022-08-19T06:21:23;94845.69;;;25.71;47.42
22389;BME280;11362;48.102;11.620;2022-08-19T06:23:48;94848.47;;;25.71;47.11
22389;BME280;11362;48.102;11.620;2022-08-19T06:26:15;94840.88;;;25.71;46.83
22389;BME280;11362;48.102;11.620;2022-08-19T06:28:40;94849.22;;;25.71;47.06
22389;BME280;11362;48.102;11.620;2022-08-19T06:31:06;94839.31;;;25.70;47.34
22389;BME280;11362;48.102;11.620;2022-08-19T06:33:32;94843.66;;;25.71;47.32
22389;BME280;11362;48.102;11.620;2022-08-19T06:35:57;94834.53;;;25.71;47.16
22389;BME280;11362;48.102;11.620;2022-08-19T06:38:22;94831.75;;;25.71;47.26
22389;BME280;11362;48.102;11.620;2022-08-19T06:40:48;94840.88;;;25.71;47.36
22389;BME280;11362;48.102;11.620;2022-08-19T06:43:13;94845.25;;;25.72;46.98
22389;BME280;11362;48.102;11.620;2022-08-19T06:45:38;94836.91;;;25.72;47.05
22389;BME280;11362;48.102;11.620;2022-08-19T06:48:03;94832.53;;;25.71;47.10
22389;BME280;11362;48.102;11.620;2022-08-19T06:50:29;94832.53;;;25.71;47.17
22389;BME280;11362;48.102;11.620;2022-08-19T06:52:54;94829.75;;;25.71;47.16
22389;BME280;11362;48.102;11.620;2022-08-19T06:55:19;94832.53;;;25.71;47.15
22389;BME280;11362;48.102;11.620;2022-08-19T06:57:45;94826.97;;;25.71;47.04
22389;BME280;11362;48.102;11.620;2022-08-19T07:00:10;94824.97;;;25.72;47.47
22389;BME280;11362;48.102;11.620;2022-08-19T07:02:35;94829.31;;;25.73;47.21
22389;BME280;11362;48.102;11.620;2022-08-19T07:05:01;94830.88;;;25.74;48.19
22389;BME280;11362;48.102;11.620;2022-08-19T07:07:26;94836.00;;;25.75;47.38
22389;BME280;11362;48.102;11.620;2022-08-19T07:09:52;94836.34;;;25.77;47.65
22389;BME280;11362;48.102;11.620;2022-08-19T07:12:17;94832.31;;;25.78;47.67
22389;BME280;11362;48.102;11.620;2022-08-19T07:14:43;94830.34;;;25.79;47.46
22389;BME280;11362;48.102;11.620;2022-08-19T07:17:10;94818.78;;;25.80;48.03
22389;BME280;11362;48.102;11.620;2022-08-19T07:19:37;94816.53;;;25.75;48.47
22389;BME280;11362;48.102;11.620;2022-08-19T07:22:05;94813.84;;;25.72;48.76
22389;BME280;11362;48.102;11.620;2022-08-19T07:24:31;94818.41;;;25.66;49.10
22389;BME280;11362;48.102;11.620;2022-08-19T07:26:59;94802.38;;;25.57;49.82
22389;BME280;11362;48.102;11.620;2022-08-19T07:29:24;94801.91;;;25.59;49.39
22389;BME280;11362;48.102;11.620;2022-08-19T07:31:51;94801.47;;;25.60;49.60
22389;BME280;11362;48.102;11.620;2022-08-19T07:34:17;94801.38;;;25.64;49.60
22389;BME280;11362;48.102;11.620;2022-08-19T07:36:43;94796.56;;;25.64;49.21
22389;BME280;11362;48.102;11.620;2022-08-19T07:39:17;94797.81;;;25.63;49.89
22389;BME280;11362;48.102;11.620;2022-08-19T07:41:42;94804.47;;;25.53;50.17
22389;BME280;11362;48.102;11.620;2022-08-19T07:44:08;94806.00;;;25.54;50.00
22389;BME280;11362;48.102;11.620;2022-08-19T07:46:37;94811.69;;;25.51;50.27
22389;BME280;11362;48.102;11.620;2022-08-19T07:49:04;94817.34;;;25.47;50.12
22389;BME280;11362;48.102;11.620;2022-08-19T07:51:29;94822.91;;;25.47;50.29
22389;BME280;11362;48.102;11.620;2022-08-19T07:53:55;94820.44;;;25.49;50.00
22389;BME280;11362;48.102;11.620;2022-08-19T07:56:21;94806.91;;;25.51;50.17
22389;BME280;11362;48.102;11.620;2022-08-19T07:58:49;94818.03;;;25.51;49.98
22389;BME280;11362;48.102;11.620;2022-08-19T08:01:18;94823.59;;;25.51;50.36
22389;BME280;11362;48.102;11.620;2022-08-19T08:03:44;94826.91;;;25.46;50.64
22389;BME280;11362;48.102;11.620;2022-08-19T08:06:10;94825.34;;;25.45;50.69
22389;BME280;11362;48.102;11.620;2022-08-19T08:08:36;94836.47;;;25.45;50.73
22389;BME280;11362;48.102;11.620;2022-08-19T08:11:01;94832.47;;;25.46;50.45
22389;BME280;11362;48.102;11.620;2022-08-19T08:13:27;94837.25;;;25.46;50.70
22389;BME280;11362;48.102;11.620;2022-08-19T08:15:53;94836.47;;;25.45;50.55
22389;BME280;11362;48.102;11.620;2022-08-19T08:18:18;94838.13;;;25.43;50.76
22389;BME280;11362;48.102;11.620;2022-08-19T08:20:43;94836.47;;;25.45;50.91
22389;BME280;11362;48.102;11.620;2022-08-19T08:23:08;94841.59;;;25.47;50.75
22389;BME280;11362;48.102;11.620;2022-08-19T08:25:35;94834.47;;;25.46;50.67
22389;BME280;11362;48.102;11.620;2022-08-19T08:28:02;94840.00;;;25.46;50.67
22389;BME280;11362;48.102;11.620;2022-08-19T08:30:29;94840.47;;;25.44;50.74
22389;BME280;11362;48.102;11.620;2022-08-19T08:32:56;94842.78;;;25.46;50.85
22389;BME280;11362;48.102;11.620;2022-08-19T08:35:23;94849.16;;;25.46;51.33
22389;BME280;11362;48.102;11.620;2022-08-19T08:37:50;94850.38;;;25.45;51.03
22389;BME280;11362;48.102;11.620;2022-08-19T08:43:06;94860.59;;;25.48;50.53
22389;BME280;11362;48.102;11.620;2022-08-19T08:45:35;94854.63;;;25.50;50.85
22389;BME280;11362;48.102;11.620;2022-08-19T08:48:18;94870.06;;;25.51;50.96
22389;BME280;11362;48.102;11.620;2022-08-19T08:50:45;94860.19;;;25.50;50.52
22389;BME280;11362;48.102;11.620;2022-08-19T08:53:14;94862.53;;;25.51;50.80
22389;BME280;11362;48.102;11.620;2022-08-19T08:55:41;94864.09;;;25.52;50.81
22389;BME280;11362;48.102;11.620;2022-08-19T08:58:11;94872.44;;;25.52;51.01
22389;BME280;11362;48.102;11.620;2022-08-19T09:00:40;94870.41;;;25.53;50.90
22389;BME280;11362;48.102;11.620;2022-08-19T09:03:16;94873.66;;;25.51;50.86
22389;BME280;11362;48.102;11.620;2022-08-19T09:05:55;94878.00;;;25.52;50.39
22389;BME280;11362;48.102;11.620;2022-08-19T09:08:45;94872.75;;;25.54;50.79
22389;BME280;11362;48.102;11.620;2022-08-19T09:11:24;94879.88;;;25.55;50.52
22389;BME280;11362;48.102;11.620;2022-08-19T09:16:34;94871.09;;;25.57;50.44
22389;BME280;11362;48.102;11.620;2022-08-19T09:19:04;94866.34;;;25.57;50.42
22389;BME280;11362;48.102;11.620;2022-08-19T09:21:31;94873.47;;;25.58;50.41
22389;BME280;11362;48.102;11.620;2022-08-19T09:23:56;94867.09;;;25.58;50.55
22389;BME280;11362;48.102;11.620;2022-08-19T09:26:22;94861.09;;;25.59;50.34
22389;BME280;11362;48.102;11.620;2022-08-19T09:28:50;94861.09;;;25.59;50.58
22389;BME280;11362;48.102;11.620;2022-08-19T09:31:19;94867.44;;;25.60;50.41
22389;BME280;11362;48.102;11.620;2022-08-19T09:33:46;94871.00;;;25.60;50.32
22389;BME280;11362;48.102;11.620;2022-08-19T09:36:14;94865.44;;;25.60;50.47
22389;BME280;11362;48.102;11.620;2022-08-19T09:38:41;94871.00;;;25.60;50.65
22389;BME280;11362;48.102;11.620;2022-08-19T09:41:09;94870.56;;;25.62;50.58
22389;BME280;11362;48.102;11.620;2022-08-19T09:43:35;94867.78;;;25.62;50.71
22389;BME280;11362;48.102;11.620;2022-08-19T09:46:01;94864.56;;;25.63;50.59
22389;BME280;11362;48.102;11.620;2022-08-19T09:48:26;94860.53;;;25.64;50.52
22389;BME280;11362;48.102;11.620;2022-08-19T09:50:52;94862.91;;;25.66;50.40
22389;BME280;11362;48.102;11.620;2022-08-19T09:53:18;94859.69;;;25.67;50.76
22389;BME280;11362;48.102;11.620;2022-08-19T09:55:43;94868.38;;;25.69;50.85
22389;BME280;11362;48.102;11.620;2022-08-19T09:58:09;94869.16;;;25.70;50.71
22389;BME280;11362;48.102;11.620;2022-08-19T10:00:37;94872.69;;;25.70;50.76
22389;BME280;11362;48.102;11.620;2022-08-19T10:03:02;94869.91;;;25.70;50.55
22389;BME280;11362;48.102;11.620;2022-08-19T10:05:28;94871.94;;;25.70;50.40
22389;BME280;11362;48.102;11.620;2022-08-19T10:07:53;94872.69;;;25.70;50.38
22389;BME280;11362;48.102;11.620;2022-08-19T10:10:18;94879.81;;;25.71;50.70
22389;BME280;11362;48.102;11.620;2022-08-19T10:12:43;94875.84;;;25.72;50.45
22389;BME280;11362;48.102;11.620;2022-08-19T10:15:09;94882.59;;;25.71;50.27
22389;BME280;11362;48.102;11.620;2022-08-19T10:17:34;94882.59;;;25.71;50.29
22389;BME280;11362;48.102;11.620;2022-08-19T10:20:00;94881.41;;;25.72;50.88
22389;BME280;11362;48.102;11.620;2022-08-19T10:22:25;94874.63;;;25.73;50.46
22389;BME280;11362;48.102;11.620;2022-08-19T10:24:51;94872.28;;;25.72;50.60
22389;BME280;11362;48.102;11.620;2022-08-19T10:27:16;94870.63;;;25.74;50.84
22389;BME280;11362;48.102;11.620;2022-08-19T10:29:42;94861.94;;;25.72;50.56
22389;BME280;11362;48.102;11.620;2022-08-19T10:32:08;94862.59;;;25.76;50.67
22389;BME280;11362;48.102;11.620;2022-08-19T10:34:36;94858.59;;;25.77;50.50
22389;BME280;11362;48.102;11.620;2022-08-19T10:37:03;94855.38;;;25.79;50.61
22389;BME280;11362;48.102;11.620;2022-08-19T10:39:30;94856.94;;;25.80;50.42
22389;BME280;11362;48.102;11.620;2022-08-19T10:41:56;94857.72;;;25.80;50.54
22389;BME280;11362;48.102;11.620;2022-08-19T10:44:21;94851.69;;;25.82;51.04
22389;BME280;11362;48.102;11.620;2022-08-19T10:46:46;94854.06;;;25.83;50.92
22389;BME280;11362;48.102;11.620;2022-08-19T10:49:12;94860.03;;;25.82;50.49
22389;BME280;11362;48.102;11.620;2022-08-19T10:51:39;94860.50;;;25.80;50.99
22389;BME280;11362;48.102;11.620;2022-08-19T10:54:04;94853.38;;;25.79;50.68
22389;BME280;11362;48.102;11.620;2022-08-19T10:56:30;94862.50;;;25.80;50.85
22389;BME280;11362;48.102;11.620;2022-08-19T10:58:56;94852.16;;;25.80;50.52
22389;BME280;11362;48.102;11.620;2022-08-19T11:01:21;94859.28;;;25.81;50.41
22389;BME280;11362;48.102;11.620;2022-08-19T11:03:46;94857.63;;;25.84;50.72
22389;BME280;11362;48.102;11.620;2022-08-19T11:06:12;94849.72;;;25.82;50.42
22389;BME280;11362;48.102;11.620;2022-08-19T11:08:37;94846.13;;;25.82;51.08
22389;BME280;11362;48.102;11.620;2022-08-19T11:11:04;94844.94;;;25.83;50.23
22389;BME280;11362;48.102;11.620;2022-08-19T11:13:32;94842.59;;;25.81;50.68
22389;BME280;11362;48.102;11.620;2022-08-19T11:16:00;94839.81;;;25.81;51.06
22389;BME280;11362;48.102;11.620;2022-08-19T11:18:25;94837.03;;;25.81;50.56
22389;BME280;11362;48.102;11.620;2022-08-19T11:20:51;94825.91;;;25.81;50.45
22389;BME280;11362;48.102;11.620;2022-08-19T11:23:16;94838.56;;;25.82;50.95
22389;BME280;11362;48.102;11.620;2022-08-19T11:25:41;94833.00;;;25.82;50.96
22389;BME280;11362;48.102;11.620;2022-08-19T11:28:06;94833.81;;;25.83;50.85
22389;BME280;11362;48.102;11.620;2022-08-19T11:30:32;94840.13;;;25.83;50.64
22389;BME280;11362;48.102;11.620;2022-08-19T11:32:57;94844.94;;;25.83;51.14
22389;BME280;11362;48.102;11.620;2022-08-19T11:35:22;94839.38;;;25.83;50.89
22389;BME280;11362;48.102;11.620;2022-08-19T11:37:48;94833.00;;;25.82;50.66
22389;BME280;11362;48.102;11.620;2022-08-19T11:40:13;94836.59;;;25.83;51.05
22389;BME280;11362;48.102;11.620;2022-08-19T11:42:38;94837.78;;;25.82;50.85
22389;BME280;11362;48.102;11.620;2022-08-19T11:45:04;94838.56;;;25.82;50.65
22389;BME280;11362;48.102;11.620;2022-08-19T11:47:30;94842.59;;;25.81;50.85
22389;BME280;11362;48.102;11.620;2022-08-19T11:49:55;94837.03;;;25.81;50.96
22389;BME280;11362;48.102;11.620;2022-08-19T11:52:20;94825.91;;;25.81;51.20
22389;BME280;11362;48.102;11.620;2022-08-19T11:54:46;94841.03;;;25.80;50.89
22389;BME280;11362;48.102;11.620;2022-08-19T11:57:11;94845.38;;;25.81;51.12
22389;BME280;11362;48.102;11.620;2022-08-19T11:59:37;94842.59;;;25.81;50.88
22389;BME280;11362;48.102;11.620;2022-08-19T12:02:02;94848.16;;;25.81;50.71
22389;BME280;11362;48.102;11.620;2022-08-19T12:04:27;94842.59;;;25.81;50.60
22389;BME280;11362;48.102;11.620;2022-08-19T12:06:52;94855.28;;;25.82;50.74
22389;BME280;11362;48.102;11.620;2022-08-19T12:09:18;94848.91;;;25.82;50.53
22389;BME280;11362;48.102;11.620;2022-08-19T12:11:43;94834.56;;;25.83;50.40
22389;BME280;11362;48.102;11.620;2022-08-19T12:14:11;94834.56;;;25.83;50.31
22389;BME280;11362;48.102;11.620;2022-08-19T12:16:37;94857.63;;;25.84;50.36
22389;BME280;11362;48.102;11.620;2022-08-19T12:19:04;94856.06;;;25.83;50.29
22389;BME280;11362;48.102;11.620;2022-08-19T12:21:31;94866.41;;;25.82;50.29
22389;BME280;11362;48.102;11.620;2022-08-19T12:23:58;94856.84;;;25.83;50.68
22389;BME280;11362;48.102;11.620;2022-08-19T12:26:25;94867.97;;;25.83;50.15
22389;BME280;11362;48.102;11.620;2022-08-19T12:28:51;94858.84;;;25.83;50.12
22389;BME280;11362;48.102;11.620;2022-08-19T12:31:16;94854.84;;;25.84;50.48
22389;BME280;11362;48.102;11.620;2022-08-19T12:33:42;94851.25;;;25.83;50.05
22389;BME280;11362;48.102;11.620;2022-08-19T12:36:09;94867.19;;;25.83;50.32
22389;BME280;11362;48.102;11.620;2022-08-19T12:38:36;94865.19;;;25.83;50.33
22389;BME280;11362;48.102;11.620;2022-08-19T12:41:03;94870.75;;;25.83;50.29
22389;BME280;11362;48.102;11.620;2022-08-19T12:43:29;94876.63;;;25.85;50.44
22389;BME280;11362;48.102;11.620;2022-08-19T12:45:54;94879.88;;;25.84;50.11
22389;BME280;11362;48.102;11.620;2022-08-19T12:48:19;94875.09;;;25.84;50.33
22389;BME280;11362;48.102;11.620;2022-08-19T12:50:45;94882.22;;;25.85;49.66
22389;BME280;11362;48.102;11.620;2022-08-19T12:53:11;94879.97;;;25.80;50.03
22389;BME280;11362;48.102;11.620;2022-08-19T12:55:36;94870.28;;;25.72;50.00